BBRO2: Mountain Fork, Broken Bow Rereg

                                SHEF ID:       BBRO2     Mountain Fork Re-regulation Dam
STATION TYPE:

STAGE RIV-FLOW VOLTAGE BAT-LOAD
ft cfs volt volt
Ccp-Rev Ccp-Rev Ccp-Rev Ccp-Rev
(America/Chicago)
04/26 00:00 393.59 2054 13.17 12.40
04/26 01:00 393.05 1760 13.17 12.45
04/26 02:00 392.59 1546 13.18 12.55
04/26 03:00 392.18 1378 13.19 12.60
04/26 04:00 391.79 1218 13.19 12.61
04/26 05:00 391.48 1093 13.19 12.61
04/26 06:00 391.18 985 13.19 12.61
04/26 07:00 390.93 890 13.19 12.61
04/26 08:00 390.67 770 13.19 12.59
04/26 09:00 390.48 693 13.19 12.61
04/26 10:00 390.29 623 13.19 12.61
04/26 11:00 390.13 570 13.19 12.61
04/26 12:00 389.99 526 13.19 12.60
04/26 13:00 389.86 481 13.19 12.60
04/26 14:00 389.74 442 13.20 12.60
04/26 15:00 389.64 412 13.20 12.58
04/26 16:00 389.55 387 13.19 12.57
04/26 17:00 389.46 363 13.19 12.57
04/26 18:00 389.37 341 13.20 12.57
04/26 19:00 389.78 454 13.19 12.57
04/26 20:00 391.78 1214 13.19 12.57
04/26 21:00 391.64 1156 13.19 12.58
04/26 22:00 391.36 1049 13.19 12.58
04/26 23:00 391.08 951 13.19 12.58
Data processed at Mon 27Apr2026 04:34 GMT

NOTICE: If you are parsing this page

Please convert to using our Data API. Starting early 2026 we will be migrating to: https://water.usace.army.mil with modern pages rendered in JavaScript. When this migration completes you will no longer be able to scrape this page! CWMSDataAPI (CDA)

Timeseries IDs (TSIDs)

TSIDs used from left to right in the data table
BROM.Stage.Inst.1Hour.0.Ccp-Rev
BROM.Flow.Inst.1Hour.0.Ccp-Rev
BROM.Volt-Battery.Inst.1Hour.0.Ccp-Rev
BROM.Volt-Battery Load.Inst.1Hour.0.Ccp-Rev

                            

All information presented herein is the property of the government of the United States of America and may be revised or deleted at any time without prior notice. Dissemination of this information without the expressed written consent of the Public Affairs Office, Tulsa District U.S. Army Corps of Engineers is strictly prohibited. These data are gathered electronically and, as presented, have NOT undergone any form of quality control. These data are NOT guaranteed to be valid or correct.